createdAt,value
2018-05-21T00:02:14.102Z,2.57
2018-05-21T00:04:44.511Z,2.93
2018-05-21T00:07:15.017Z,2.43
2018-05-21T00:09:44.781Z,2.60
2018-05-21T00:12:14.375Z,2.30
2018-05-21T00:14:44.008Z,3.10
2018-05-21T00:17:13.633Z,2.57
2018-05-21T00:19:44.603Z,3.50
2018-05-21T00:22:15.154Z,4.00
2018-05-21T00:24:45.519Z,3.13
2018-05-21T00:27:15.171Z,3.70
2018-05-21T00:29:46.254Z,2.83
2018-05-21T00:32:16.514Z,4.80
2018-05-21T00:34:46.769Z,3.80
2018-05-21T00:37:17.781Z,4.83
2018-05-21T00:39:48.305Z,2.83
2018-05-21T00:42:18.580Z,3.80
2018-05-21T00:44:48.817Z,2.90
2018-05-21T00:47:19.063Z,3.60
2018-05-21T00:49:49.308Z,2.90
2018-05-21T00:52:19.724Z,2.93
2018-05-21T00:55:01.917Z,3.00
2018-05-21T00:57:32.350Z,3.40
2018-05-21T01:00:03.395Z,4.57
2018-05-21T01:02:33.713Z,3.37
2018-05-21T01:05:03.948Z,3.13
2018-05-21T01:07:34.135Z,4.07
2018-05-21T01:10:04.588Z,2.80
2018-05-21T01:12:34.849Z,4.50
2018-05-21T01:15:05.873Z,2.60
2018-05-21T01:17:36.915Z,3.40
2018-05-21T01:20:08.039Z,3.50
2018-05-21T01:22:38.464Z,3.43
2018-05-21T01:25:08.823Z,4.10
2018-05-21T01:27:39.951Z,3.93
2018-05-21T01:30:10.940Z,3.70
2018-05-21T01:32:41.219Z,3.30
2018-05-21T01:35:12.301Z,4.63
2018-05-21T01:37:42.647Z,3.40
2018-05-21T01:40:13.083Z,3.90
2018-05-21T01:42:44.170Z,3.67
2018-05-21T01:45:14.524Z,3.40
2018-05-21T01:47:44.789Z,3.47
2018-05-21T01:50:15.878Z,3.37
2018-05-21T01:52:46.239Z,5.03
2018-05-21T01:55:17.288Z,3.87
2018-05-21T01:57:47.887Z,6.33
2018-05-21T02:00:18.487Z,3.90
2018-05-21T02:02:48.125Z,3.70
2018-05-21T02:05:17.933Z,5.20
2018-05-21T02:07:47.548Z,3.93
2018-05-21T02:10:17.177Z,3.43
2018-05-21T02:12:46.938Z,4.50
2018-05-21T02:15:16.935Z,4.70
2018-05-21T02:17:46.759Z,4.60
2018-05-21T02:20:17.354Z,4.30
2018-05-21T02:22:47.192Z,4.00
2018-05-21T02:25:16.936Z,3.47
2018-05-21T02:27:47.338Z,4.23
2018-05-21T02:30:17.130Z,3.80
2018-05-21T02:32:47.579Z,4.33
2018-05-21T02:35:17.232Z,4.00
2018-05-21T02:37:46.951Z,6.47
2018-05-21T02:40:16.707Z,3.80
2018-05-21T02:42:46.456Z,4.13
2018-05-21T02:45:16.189Z,4.37
2018-05-21T02:47:45.909Z,5.03
2018-05-21T02:50:16.469Z,5.00
2018-05-21T02:52:51.160Z,4.47
2018-05-21T02:55:21.690Z,4.77
2018-05-21T02:57:51.420Z,4.37
2018-05-21T03:00:21.962Z,5.37
2018-05-21T03:02:51.760Z,4.53
2018-05-21T03:05:22.271Z,4.50
2018-05-21T03:07:52.031Z,4.10
2018-05-21T03:10:21.755Z,8.20
2018-05-21T03:12:51.469Z,6.93
2018-05-21T03:15:21.062Z,6.50
2018-05-21T03:17:50.820Z,5.03
2018-05-21T03:20:20.563Z,5.20
2018-05-21T03:22:50.166Z,4.50
2018-05-21T03:25:19.773Z,5.27
2018-05-21T03:27:49.537Z,5.67
2018-05-21T03:30:19.285Z,5.10
2018-05-21T03:32:49.833Z,5.43
2018-05-21T03:35:19.442Z,6.30
2018-05-21T03:37:49.072Z,8.37
2018-05-21T03:40:18.701Z,6.60
2018-05-21T03:42:48.449Z,6.40
2018-05-21T03:45:18.866Z,6.03
2018-05-21T03:47:49.242Z,6.90
2018-05-21T03:50:19.757Z,6.77
2018-05-21T03:52:49.484Z,7.50
2018-05-21T03:55:19.233Z,6.63
2018-05-21T03:57:48.877Z,9.87
2018-05-21T04:00:29.521Z,6.73
2018-05-21T04:06:02.765Z,7.70
2018-05-21T04:08:32.461Z,8.03
2018-05-21T04:11:02.196Z,6.53
2018-05-21T04:13:31.922Z,7.63
2018-05-21T04:16:01.555Z,7.40
2018-05-21T04:18:31.374Z,6.87
2018-05-21T04:21:01.928Z,8.83
2018-05-21T04:23:31.529Z,6.50
2018-05-21T04:26:01.954Z,8.65
2018-05-21T04:28:32.430Z,7.77
2018-05-21T04:31:02.062Z,7.90
2018-05-21T04:33:31.728Z,9.30
2018-05-21T04:36:01.555Z,7.87
2018-05-21T04:38:31.293Z,8.10
2018-05-21T04:41:00.950Z,8.10
2018-05-21T04:43:30.595Z,8.60
2018-05-21T04:46:00.242Z,8.47
2018-05-21T04:48:30.034Z,9.53
2018-05-21T04:50:59.654Z,10.90
2018-05-21T04:53:30.173Z,9.27
2018-05-21T04:56:00.920Z,9.40
2018-05-21T04:58:30.613Z,13.80
2018-05-21T05:01:01.178Z,10.40
2018-05-21T05:03:30.940Z,8.87
2018-05-21T05:06:00.746Z,9.67
2018-05-21T05:08:30.520Z,10.27
2018-05-21T05:11:00.189Z,9.33
2018-05-21T05:13:30.932Z,9.67
2018-05-21T05:16:01.657Z,9.33
2018-05-21T05:18:32.164Z,12.83
2018-05-21T05:21:01.965Z,10.00
2018-05-21T05:23:31.650Z,10.63
2018-05-21T05:26:01.323Z,13.33
2018-05-21T05:28:31.785Z,9.27
2018-05-21T05:31:02.503Z,10.20
2018-05-21T05:33:32.094Z,10.70
2018-05-21T05:36:02.651Z,9.73
2018-05-21T05:38:32.257Z,10.40
2018-05-21T05:41:02.013Z,9.50
2018-05-21T05:43:31.640Z,9.43
2018-05-21T05:46:02.227Z,9.07
2018-05-21T05:48:32.035Z,9.60
2018-05-21T05:51:01.659Z,8.90
2018-05-21T05:53:31.262Z,9.47
2018-05-21T05:56:00.880Z,9.57
2018-05-21T05:58:30.641Z,10.47
2018-05-21T06:01:00.537Z,9.23
2018-05-21T06:03:30.235Z,9.67
2018-05-21T06:06:00.723Z,8.17
2018-05-21T06:08:30.540Z,8.33
2018-05-21T06:11:00.191Z,8.33
2018-05-21T06:13:30.829Z,8.17
2018-05-21T06:16:00.500Z,9.10
2018-05-21T06:18:30.175Z,9.30
2018-05-21T06:20:59.900Z,9.37
2018-05-21T06:23:29.507Z,8.80
2018-05-21T06:25:59.388Z,9.00
2018-05-21T06:28:29.199Z,10.20
2018-05-21T06:30:58.813Z,9.20
2018-05-21T06:33:28.483Z,8.80
2018-05-21T06:35:58.989Z,9.03
2018-05-21T06:38:28.601Z,10.20
2018-05-21T06:40:58.249Z,8.90
2018-05-21T06:43:28.756Z,8.27
2018-05-21T06:45:58.350Z,9.10
2018-05-21T06:48:28.132Z,8.97
2018-05-21T06:50:57.991Z,10.23
2018-05-21T06:53:28.620Z,9.07
2018-05-21T06:55:58.276Z,10.50
2018-05-21T06:58:28.031Z,8.90
2018-05-21T07:00:57.748Z,8.77
2018-05-21T07:03:28.275Z,9.03
2018-05-21T07:05:57.876Z,8.77
2018-05-21T07:08:27.628Z,8.77
2018-05-21T07:10:57.443Z,8.87
2018-05-21T07:13:27.275Z,9.93
2018-05-21T07:15:57.019Z,9.73
2018-05-21T07:18:26.720Z,9.63
2018-05-21T07:20:56.370Z,9.40
2018-05-21T07:23:26.383Z,9.70
2018-05-21T07:25:56.891Z,9.73
2018-05-21T07:28:27.331Z,9.10
2018-05-21T07:30:57.705Z,12.33
2018-05-21T07:33:27.439Z,10.83
2018-05-21T07:35:57.198Z,9.80
2018-05-21T07:38:26.950Z,11.63
2018-05-21T07:40:56.684Z,11.10
2018-05-21T07:43:26.533Z,12.13
2018-05-21T07:45:56.205Z,11.60
2018-05-21T07:48:26.800Z,12.03
2018-05-21T07:50:56.569Z,12.53
2018-05-21T07:53:27.100Z,12.40
2018-05-21T07:55:57.470Z,12.00
2018-05-21T07:58:27.087Z,11.80
2018-05-21T08:00:56.821Z,10.43
2018-05-21T08:03:26.453Z,11.47
2018-05-21T08:05:56.144Z,10.97
2018-05-21T08:08:26.610Z,10.60
2018-05-21T08:10:56.295Z,10.60
2018-05-21T08:13:26.061Z,10.30
2018-05-21T08:15:55.832Z,9.63
2018-05-21T08:18:25.558Z,11.60
2018-05-21T08:20:55.335Z,11.17
2018-05-21T08:23:25.707Z,11.07
2018-05-21T08:25:55.443Z,10.40
2018-05-21T08:28:25.203Z,10.20
2018-05-21T08:30:54.817Z,10.70
2018-05-21T08:33:24.539Z,10.43
2018-05-21T08:35:54.282Z,10.40
2018-05-21T08:38:24.082Z,10.17
2018-05-21T08:40:53.828Z,9.10
2018-05-21T08:43:24.353Z,8.90
2018-05-21T08:45:54.817Z,9.73
2018-05-21T08:48:24.607Z,12.50
2018-05-21T08:50:54.292Z,9.73
2018-05-21T08:53:24.811Z,10.07
2018-05-21T08:55:54.571Z,12.90
2018-05-21T08:58:24.173Z,9.00
2018-05-21T09:00:53.985Z,10.13
2018-05-21T09:03:23.604Z,8.97
2018-05-21T09:05:54.218Z,9.63
2018-05-21T09:08:23.982Z,9.07
2018-05-21T09:10:53.720Z,8.87
2018-05-21T09:13:24.299Z,9.67
2018-05-21T09:15:54.132Z,8.97
2018-05-21T09:18:23.754Z,8.43
2018-05-21T09:20:53.569Z,9.33
2018-05-21T09:23:23.979Z,8.50
2018-05-21T09:25:53.588Z,7.97
2018-05-21T09:28:23.435Z,7.93
2018-05-21T09:30:53.083Z,8.73
2018-05-21T09:33:22.680Z,7.97
2018-05-21T09:35:52.341Z,7.23
2018-05-21T09:38:22.790Z,8.03
2018-05-21T09:40:52.604Z,8.03
2018-05-21T09:43:22.245Z,8.47
2018-05-21T09:45:51.865Z,8.10
2018-05-21T09:48:21.721Z,7.80
2018-05-21T09:50:51.413Z,9.10
2018-05-21T09:53:22.027Z,7.13
2018-05-21T09:55:52.630Z,7.73
2018-05-21T09:58:23.068Z,11.90
2018-05-21T10:00:56.586Z,8.10
2018-05-21T10:03:26.323Z,9.87
2018-05-21T10:05:56.756Z,8.73
2018-05-21T10:08:26.686Z,8.80
2018-05-21T10:10:56.367Z,7.77
2018-05-21T10:13:26.813Z,6.73
2018-05-21T10:15:56.436Z,7.73
2018-05-21T10:18:26.286Z,6.47
2018-05-21T10:20:56.058Z,7.03
2018-05-21T10:23:25.807Z,8.70
2018-05-21T10:25:55.487Z,6.90
2018-05-21T10:28:26.048Z,6.50
2018-05-21T10:30:55.822Z,6.50
2018-05-21T10:33:25.558Z,6.50
2018-05-21T10:35:56.123Z,6.00
2018-05-21T10:38:26.499Z,6.90
2018-05-21T10:40:56.167Z,6.10
2018-05-21T10:43:26.765Z,6.97
2018-05-21T10:45:56.464Z,6.60
2018-05-21T10:48:26.128Z,6.47
2018-05-21T10:50:56.531Z,6.60
2018-05-21T10:53:26.477Z,5.87
2018-05-21T10:55:56.245Z,6.33
2018-05-21T10:58:26.072Z,5.90
2018-05-21T11:00:56.627Z,6.40
2018-05-21T11:03:26.410Z,13.27
2018-05-21T11:05:56.219Z,6.00
2018-05-21T11:08:25.817Z,5.90
2018-05-21T11:10:55.532Z,6.20
2018-05-21T11:13:25.936Z,5.87
2018-05-21T11:15:55.535Z,6.03
2018-05-21T11:18:25.368Z,5.90
2018-05-21T11:20:55.006Z,5.97
2018-05-21T11:23:25.550Z,5.70
2018-05-21T11:25:55.195Z,7.27
2018-05-21T11:28:24.843Z,6.40
2018-05-21T11:30:54.515Z,7.00
2018-05-21T11:33:24.482Z,5.77
2018-05-21T11:35:55.074Z,4.73
2018-05-21T11:38:25.028Z,5.90
2018-05-21T11:40:55.070Z,5.40
2018-05-21T11:43:24.832Z,5.40
2018-05-21T11:45:54.492Z,5.30
2018-05-21T11:48:24.316Z,5.90
2018-05-21T11:50:53.998Z,5.57
2018-05-21T11:53:23.708Z,5.40
2018-05-21T11:55:53.715Z,5.13
2018-05-21T11:58:23.350Z,4.70
2018-05-21T12:00:53.013Z,6.53
2018-05-21T12:03:23.637Z,5.50
2018-05-21T12:05:54.034Z,5.80
2018-05-21T12:08:23.741Z,7.60
2018-05-21T12:10:53.385Z,7.70
2018-05-21T12:13:23.081Z,5.33
2018-05-21T12:15:52.736Z,5.07
2018-05-21T12:18:22.519Z,5.23
2018-05-21T12:20:53.037Z,6.17
2018-05-21T12:23:22.877Z,5.60
2018-05-21T12:25:53.309Z,8.50
2018-05-21T12:28:23.167Z,6.20
2018-05-21T12:30:52.942Z,6.90
2018-05-21T12:33:23.607Z,7.10
2018-05-21T12:35:53.237Z,6.10
2018-05-21T12:38:22.886Z,5.87
2018-05-21T12:40:52.641Z,5.40
2018-05-21T12:43:22.928Z,5.63
2018-05-21T12:45:52.677Z,5.77
2018-05-21T12:48:22.445Z,5.97
2018-05-21T12:50:52.224Z,5.60
2018-05-21T12:53:22.645Z,5.80
2018-05-21T12:55:52.444Z,5.90
2018-05-21T12:58:22.394Z,5.67
2018-05-21T13:00:52.047Z,5.80
2018-05-21T13:03:21.813Z,6.40
2018-05-21T13:05:52.355Z,6.27
2018-05-21T13:08:22.034Z,5.57
2018-05-21T13:10:51.849Z,6.10
2018-05-21T13:13:21.635Z,6.17
2018-05-21T13:15:51.286Z,7.97
2018-05-21T13:18:21.963Z,6.43
2018-05-21T13:20:51.790Z,6.30
2018-05-21T13:23:21.601Z,6.67
2018-05-21T13:25:51.296Z,7.70
2018-05-21T13:28:21.172Z,7.93
2018-05-21T13:30:51.209Z,10.73
2018-05-21T13:33:20.877Z,6.33
2018-05-21T13:35:51.343Z,6.33
2018-05-21T13:38:21.021Z,5.70
2018-05-21T13:40:51.633Z,6.73
2018-05-21T13:43:22.987Z,7.00
2018-05-21T13:45:53.593Z,6.67
2018-05-21T13:48:23.463Z,6.33
2018-05-21T13:50:53.196Z,6.53
2018-05-21T13:53:23.069Z,6.70
2018-05-21T13:55:53.640Z,6.13
2018-05-21T13:58:23.380Z,6.10
2018-05-21T14:00:53.228Z,5.70
2018-05-21T14:03:22.899Z,6.57
2018-05-21T14:05:52.951Z,5.93
2018-05-21T14:08:24.018Z,7.13
2018-05-21T14:10:53.723Z,5.67
2018-05-21T14:13:23.483Z,6.30
2018-05-21T14:15:53.259Z,6.37
2018-05-21T14:18:23.070Z,6.10
2018-05-21T14:20:52.839Z,6.57
2018-05-21T14:23:23.293Z,6.90
2018-05-21T14:25:53.082Z,10.83
2018-05-21T14:28:23.645Z,7.20
2018-05-21T14:30:53.338Z,5.90
2018-05-21T14:33:23.094Z,6.47
2018-05-21T14:35:52.882Z,5.90
2018-05-21T14:38:23.061Z,6.50
2018-05-21T14:40:53.467Z,5.90
2018-05-21T14:43:23.148Z,9.00
2018-05-21T14:45:52.778Z,8.13
2018-05-21T14:48:22.516Z,5.73
2018-05-21T14:50:53.170Z,5.93
2018-05-21T14:53:22.936Z,6.80
2018-05-21T14:55:52.749Z,7.87
2018-05-21T14:58:23.329Z,5.20
2018-05-21T15:00:53.123Z,6.60
2018-05-21T15:03:22.815Z,6.00
2018-05-21T15:05:53.333Z,7.10
2018-05-21T15:08:23.109Z,8.43
2018-05-21T15:10:52.801Z,10.20
2018-05-21T15:13:22.541Z,6.40
2018-05-21T15:15:52.346Z,13.43
2018-05-21T15:18:22.055Z,7.60
2018-05-21T15:20:51.852Z,9.93
2018-05-21T15:23:21.574Z,9.80
2018-05-21T15:25:51.196Z,9.07
2018-05-21T15:28:21.000Z,16.87
2018-05-21T15:30:50.853Z,7.47
2018-05-21T15:33:21.276Z,19.27
2018-05-21T15:35:51.828Z,9.57
2018-05-21T15:38:21.575Z,9.83
2018-05-21T15:40:51.187Z,6.93
2018-05-21T15:43:21.045Z,11.97
2018-05-21T15:45:50.891Z,10.73
2018-05-21T15:48:20.635Z,7.83
2018-05-21T15:50:50.274Z,7.83
2018-05-21T15:53:20.709Z,12.20
2018-05-21T15:55:50.514Z,9.57
2018-05-21T15:58:21.318Z,14.33
2018-05-21T16:00:52.244Z,10.53
2018-05-21T16:03:22.138Z,8.50
2018-05-21T16:05:51.872Z,18.07
2018-05-21T16:08:21.674Z,13.37
2018-05-21T16:10:51.644Z,10.10
2018-05-21T16:13:21.297Z,10.33
2018-05-21T16:15:50.982Z,12.40
2018-05-21T16:18:20.771Z,5.80
2018-05-21T16:20:50.430Z,6.60
2018-05-21T16:23:20.229Z,5.40
2018-05-21T16:25:49.993Z,7.00
2018-05-21T16:28:20.529Z,9.13
2018-05-21T16:30:50.885Z,7.67
2018-05-21T16:33:20.635Z,4.70
2018-05-21T16:35:50.375Z,4.93
2018-05-21T16:38:20.860Z,5.63
2018-05-21T16:41:56.353Z,9.73
2018-05-21T22:54:30.529Z,2.10
2018-05-21T23:01:12.750Z,3.50
2018-05-21T23:03:42.427Z,3.20
2018-05-21T23:06:12.929Z,3.20
2018-05-21T23:08:42.640Z,3.10
2018-05-21T23:11:12.252Z,3.17
2018-05-21T23:13:42.009Z,3.47
2018-05-21T23:16:11.624Z,3.13
2018-05-21T23:18:41.252Z,2.97
2018-05-21T23:21:10.886Z,2.80
2018-05-21T23:23:40.538Z,2.80
2018-05-21T23:26:10.280Z,2.60
2018-05-21T23:28:39.883Z,3.13
2018-05-21T23:31:09.489Z,3.33
2018-05-21T23:33:39.109Z,3.07
2018-05-21T23:36:08.701Z,3.20
2018-05-21T23:38:38.301Z,4.07
2018-05-21T23:41:08.060Z,3.17
2018-05-21T23:43:37.809Z,3.53
2018-05-21T23:46:07.441Z,3.00
2018-05-21T23:48:37.229Z,4.20
2018-05-21T23:51:07.001Z,3.67
2018-05-21T23:53:36.704Z,3.37
2018-05-21T23:56:06.491Z,3.63
2018-05-21T23:58:36.261Z,4.17
